Athens, Wisconsin
Current Conditions -  °F | °C
As of 12:15 AM on Thursday 29 Jan 2015 (Local Time) from KMDZ Reporting Station
Haze Haze  
Wind Chill: 25°   Ceiling: 700
Heat Index: 25°   Visibility: 5mi
Dew Point: 23°   Wind: 3mph
Humidity: 94%   Direction: 170°S
Pressure: 29.78"   Gusts: NA
Location:  45.03°N, 90.07°W
Report Text: KMDZ 290615Z AUTO 17003KT 5SM BR OVC007 M04/M05 A2978 RMK AO2 T10401048
Loading
Personal Weather Stations






























Interactive Weather Map New forecast layout! Learn more

10-Day Weather Forecast

Advertisements
Track Severe Weather on mobile